This is the latest recevied weather packets stored in our database for station/object EMGATE. If no packets are shown the sender has not sent any weather packets the latest 1 day(s).
| Time | Temp. | Humidity | Pressure | Rain* | Wind** | Luminosity | Snow |
|---|---|---|---|---|---|---|---|
| 1836274129 | 6.67° C | 63% | 1024.1 hPa | 0 mm | 0.45 m/s, 1° | - | - |
| 1836273979 | 6.67° C | 62% | 1024 hPa | 0 mm | 0.89 m/s, 356° | - | - |
| 1778051053 | 9.44° C | 74% | 1008 hPa | 0 mm | 1.34 m/s, 243° | - | - |
| 1778050153 | 10° C | 74% | 1007.4 hPa | 0 mm | 1.34 m/s, 251° | - | - |
| 1778049253 | 10° C | 73% | 1007.8 hPa | 0 mm | 1.34 m/s, 203° | - | - |
| 1778048353 | 10° C | 73% | 1007.5 hPa | 0 mm | 1.34 m/s, 238° | - | - |
| 1778047453 | 10° C | 72% | 1007.4 hPa | 0 mm | 1.34 m/s, 233° | - | - |
| 1778046553 | 10° C | 73% | 1007.2 hPa | 0 mm | 1.34 m/s, 224° | - | - |
| 1778045653 | 10° C | 73% | 1007.2 hPa | 0 mm | 1.34 m/s, 252° | - | - |
| 1778044753 | 10° C | 74% | 1007.2 hPa | 0 mm | 0.89 m/s, 280° | - | - |
| 1778043853 | 10° C | 72% | 1006.8 hPa | 0 mm | 0.89 m/s, 273° | - | - |
| 1778042953 | 10.56° C | 70% | 1006.8 hPa | 0 mm | 1.34 m/s, 240° | - | - |
| 1778042053 | 10.56° C | 68% | 1006.7 hPa | 0 mm | 1.34 m/s, 259° | - | - |
| 1778041153 | 10.56° C | 68% | 1006.5 hPa | 0 mm | 1.79 m/s, 238° | - | - |
| 1778040253 | 10.56° C | 68% | 1006.1 hPa | 0 mm | 1.79 m/s, 255° | - | - |
| 1778039353 | 11.11° C | 69% | 1006 hPa | 0 mm | 1.79 m/s, 252° | - | - |
| 1778038453 | 11.11° C | 69% | 1005.9 hPa | 0 mm | 2.68 m/s, 281° | - | - |
| 1778037553 | 11.67° C | 68% | 1005.5 hPa | 0 mm | 2.24 m/s, 250° | - | - |
| 1778036653 | 11.67° C | 68% | 1005.6 hPa | 0 mm | 3.13 m/s, 259° | - | - |
| 1778035753 | 11.67° C | 68% | 1005.2 hPa | 0 mm | 2.68 m/s, 278° | - | - |
| 1778034853 | 12.22° C | 68% | 1004.9 hPa | 0 mm | 2.68 m/s, 285° | - | - |
| 1778033953 | 12.78° C | 67% | 1004.8 hPa | 0 mm | 2.68 m/s, 252° | - | - |
| 1778033053 | 12.78° C | 69% | 1004.6 hPa | 0 mm | 2.24 m/s, 275° | - | - |
| 1778032153 | 12.78° C | 69% | 1004.4 hPa | 0 mm | 1.34 m/s, 260° | - | - |
| 1778031253 | 12.78° C | 67% | 1004.3 hPa | 0 mm | 2.24 m/s, 203° | - | - |
* Rain latest hour (hover to see other rain measurements)
** Current wind speed in m/s (hover to see current wind gust speed)